Callaway, Virginia
Current Conditions -  °F | °C
As of 4:54 AM on Sunday 25 Jan 2015 (Local Time) from KROA Reporting Station
Overcast Overcast  
Wind Chill: 37°   Ceiling: 3500
Heat Index: 37°   Visibility: 10mi
Dew Point: 27°   Wind: 3mph
Humidity: 67%   Direction: 220°SW
Pressure: 29.85"   Gusts: NA
Location:  37.01°N, 80.05°W
Report Text: KROA 250954Z 22003KT 10SM BKN035 OVC045 03/M03 A2985 RMK AO2 SLP114 T00281028
Loading
Personal Weather Stations






























Interactive Weather Map New forecast layout! Learn more

10-Day Weather Forecast

Advertisements
Track Severe Weather on mobile